Muckle Holm, United Kingdom
Current Conditions -  °F | °C
As of 9:50 PM on Friday 24 Oct 2014 (Local Time) from EGPM Reporting Station
Moderate Rain Moderate Rain  
Wind Chill:   Ceiling: 1600
Heat Index:   Visibility: 6mi
Dew Point:   Wind: 16mph
Humidity: 87%   Direction: 220°SW
Pressure: 29.47"   Gusts: NA
Location:  60.58°N, 1.27°W
Report Text: EGPM 242050Z AUTO 22014KT 9999 RA BKN016/// 09/07 Q0998
Loading
Personal Weather Stations






























Interactive Weather Map
Tropical Storm Tracking
New forecast layout! Learn more

10-Day Weather Forecast

Advertisements
Track Severe Weather on mobile